Time;durP1;ratioP1;P1;durP2;ratioP2;P2;SDS_P1;SDS_P2;PMS_P1;PMS_P2;Temp;Humidity;BMP_temperature;BMP_pressure;BME280_temperature;BME280_humidity;BME280_pressure;Samples;Min_cycle;Max_cycle;Signal;HPM_P1;HPM_P2
2022/01/09 00:00:04;;;;;;;1.83;1.30;;;7.00;99.90;;;;;;5057244;28;20910;-52
2022/01/09 00:02:29;;;;;;;1.27;1.13;;;7.10;99.90;;;;;;5057126;28;20539;-49
2022/01/09 00:04:55;;;;;;;1.30;1.03;;;7.10;99.90;;;;;;5053844;28;20831;-52
2022/01/09 00:07:20;;;;;;;1.90;1.20;;;7.10;99.90;;;;;;5057120;28;20190;-53
2022/01/09 00:09:46;;;;;;;1.33;1.00;;;7.10;99.90;;;;;;5053497;28;20209;-52
2022/01/09 00:12:11;;;;;;;2.33;1.10;;;7.10;99.90;;;;;;5056643;28;20769;-50
2022/01/09 00:14:37;;;;;;;2.53;1.30;;;7.10;99.90;;;;;;5055930;28;20200;-50
2022/01/09 00:17:03;;;;;;;1.20;0.90;;;7.10;99.90;;;;;;5058082;28;20187;-51
2022/01/09 00:19:29;;;;;;;1.40;1.00;;;7.10;99.90;;;;;;5054936;28;20484;-52
2022/01/09 00:21:55;;;;;;;1.20;0.90;;;7.20;99.90;;;;;;5058006;28;20430;-51
2022/01/09 00:24:21;;;;;;;1.53;1.00;;;7.20;99.90;;;;;;5057851;28;20187;-50
2022/01/09 00:26:47;;;;;;;1.50;1.20;;;7.20;99.90;;;;;;5055701;28;21006;-55
2022/01/09 00:29:12;;;;;;;1.30;1.00;;;7.20;99.90;;;;;;5039264;28;20273;-53
2022/01/09 00:31:38;;;;;;;1.20;0.93;;;7.20;99.90;;;;;;5055061;28;20225;-54
2022/01/09 00:34:04;;;;;;;1.30;0.90;;;7.20;99.90;;;;;;5055509;28;20187;-53
2022/01/09 00:36:30;;;;;;;1.20;0.80;;;7.20;99.90;;;;;;5055976;28;20498;-53
2022/01/09 00:38:57;;;;;;;1.30;0.90;;;7.10;99.90;;;;;;5056151;28;20245;-55
2022/01/09 00:41:22;;;;;;;1.40;0.83;;;7.20;99.90;;;;;;5036469;28;20939;-51
2022/01/09 00:43:48;;;;;;;1.30;1.10;;;7.10;99.90;;;;;;5055890;28;20459;-54
2022/01/09 00:46:13;;;;;;;1.10;0.80;;;7.10;99.90;;;;;;5054080;28;20237;-52
2022/01/09 00:48:39;;;;;;;1.50;1.00;;;7.10;99.90;;;;;;5035490;28;20547;-52
2022/01/09 00:51:05;;;;;;;1.40;1.00;;;7.20;99.90;;;;;;5056442;28;20249;-52
2022/01/09 00:53:31;;;;;;;1.20;0.90;;;7.20;99.90;;;;;;5037132;28;20195;-48
2022/01/09 00:55:56;;;;;;;2.00;0.97;;;7.30;99.90;;;;;;5054806;28;20222;-52
2022/01/09 00:58:22;;;;;;;1.43;0.90;;;7.30;99.90;;;;;;5057840;28;20195;-49
2022/01/09 01:00:48;;;;;;;1.30;0.87;;;7.30;99.90;;;;;;5056348;28;20445;-52
2022/01/09 01:03:13;;;;;;;1.30;1.00;;;7.30;99.90;;;;;;5057011;28;20573;-52
2022/01/09 01:05:39;;;;;;;1.10;0.80;;;7.40;99.90;;;;;;5057192;28;20282;-51
2022/01/09 01:08:05;;;;;;;1.60;1.10;;;7.40;99.90;;;;;;5056614;28;20186;-51
2022/01/09 01:10:30;;;;;;;1.40;0.90;;;7.50;99.90;;;;;;5055820;28;20198;-53
2022/01/09 01:12:56;;;;;;;1.30;1.00;;;7.50;99.90;;;;;;5056607;28;20222;-51
2022/01/09 01:15:22;;;;;;;1.27;0.80;;;7.50;99.90;;;;;;5057420;28;20203;-50
2022/01/09 01:17:47;;;;;;;1.27;0.93;;;7.60;99.90;;;;;;5055918;28;20230;-53
2022/01/09 01:20:14;;;;;;;1.10;0.90;;;7.60;99.90;;;;;;5056677;28;20241;-51
2022/01/09 01:22:42;;;;;;;1.20;0.80;;;7.60;99.90;;;;;;5057072;28;20194;-52
2022/01/09 01:25:09;;;;;;;1.10;0.90;;;7.60;99.90;;;;;;5055159;28;20460;-50
2022/01/09 01:27:34;;;;;;;1.20;1.00;;;7.70;99.90;;;;;;5058654;28;20421;-49
2022/01/09 01:30:00;;;;;;;1.33;0.97;;;7.70;99.90;;;;;;5055286;28;20896;-51
2022/01/09 01:32:26;;;;;;;1.13;0.93;;;7.70;99.90;;;;;;5058499;28;20674;-51
2022/01/09 01:34:52;;;;;;;1.10;0.80;;;7.70;99.90;;;;;;5054823;28;20748;-52
2022/01/09 01:37:17;;;;;;;1.53;1.03;;;7.70;99.90;;;;;;5040489;28;20579;-49
2022/01/09 01:39:43;;;;;;;1.27;1.03;;;7.70;99.90;;;;;;5055306;28;20475;-50
2022/01/09 01:42:09;;;;;;;1.10;0.90;;;7.70;99.90;;;;;;5056454;28;20191;-51
2022/01/09 01:44:52;;;;;;;1.10;0.90;;;7.60;99.90;;;;;;5055807;28;20586;-51
2022/01/09 01:47:20;;;;;;;1.30;0.90;;;7.60;99.90;;;;;;5057822;28;20191;-52
2022/01/09 01:49:47;;;;;;;1.37;0.90;;;7.60;99.90;;;;;;5053943;28;20433;-49
2022/01/09 01:52:16;;;;;;;1.80;0.90;;;7.60;99.90;;;;;;5054627;28;20437;-49
2022/01/09 01:54:43;;;;;;;1.50;0.90;;;7.50;99.90;;;;;;5058089;28;20448;-50
2022/01/09 01:57:09;;;;;;;1.47;0.90;;;7.60;99.90;;;;;;5055443;28;20796;-50
2022/01/09 01:59:35;;;;;;;1.80;1.03;;;7.60;99.90;;;;;;5057402;28;20457;-52
2022/01/09 02:02:01;;;;;;;1.40;0.90;;;7.50;99.90;;;;;;5057146;28;20903;-52
2022/01/09 02:04:26;;;;;;;2.53;0.97;;;7.60;99.90;;;;;;5057268;28;21144;-49
2022/01/09 02:06:53;;;;;;;1.70;1.10;;;7.60;99.90;;;;;;5054046;28;20845;-53
2022/01/09 02:09:19;;;;;;;1.10;0.80;;;7.60;99.90;;;;;;5057210;28;20603;-51
2022/01/09 02:11:46;;;;;;;1.67;1.20;;;7.70;99.90;;;;;;5022784;28;20470;-48
2022/01/09 02:14:11;;;;;;;2.27;1.00;;;7.70;99.90;;;;;;5056910;28;22015;-51
2022/01/09 02:16:42;;;;;;;1.87;1.77;;;7.70;99.90;;;;;;5057215;28;20465;-49
2022/01/09 02:19:11;;;;;;;1.10;0.90;;;7.70;99.90;;;;;;5056970;28;20218;-49
2022/01/09 02:21:40;;;;;;;1.53;1.10;;;7.70;99.90;;;;;;5062410;28;20426;-51
2022/01/09 02:24:05;;;;;;;1.43;1.03;;;7.70;99.90;;;;;;5059957;28;20478;-52
2022/01/09 02:26:31;;;;;;;1.83;0.90;;;7.70;99.90;;;;;;5042716;28;20453;-47
2022/01/09 02:28:57;;;;;;;4.40;1.20;;;7.70;99.90;;;;;;5060961;28;20513;-50
2022/01/09 02:31:22;;;;;;;1.27;0.93;;;7.70;99.90;;;;;;5057716;28;20203;-50
2022/01/09 02:33:48;;;;;;;1.40;1.10;;;7.70;99.90;;;;;;5060598;28;20198;-49
2022/01/09 02:36:13;;;;;;;1.93;1.00;;;7.70;99.90;;;;;;5057622;28;20230;-51
2022/01/09 02:38:39;;;;;;;1.30;1.00;;;7.70;99.90;;;;;;5059623;28;20545;-50
2022/01/09 02:41:05;;;;;;;1.20;0.90;;;7.70;99.90;;;;;;5059254;28;20194;-50
2022/01/09 02:43:30;;;;;;;1.57;1.03;;;7.70;99.90;;;;;;5060994;28;20187;-49
2022/01/09 02:46:14;;;;;;;1.40;1.03;;;7.70;99.90;;;;;;5058902;28;20718;-48
2022/01/09 02:48:40;;;;;;;1.77;1.00;;;7.70;99.90;;;;;;5060086;28;20621;-47
2022/01/09 02:51:15;;;;;;;1.30;0.90;;;7.70;99.90;;;;;;5060068;28;20926;-51
2022/01/09 02:53:44;;;;;;;1.27;0.97;;;7.60;99.90;;;;;;5059204;28;20762;-52
2022/01/09 02:56:10;;;;;;;1.90;0.93;;;7.60;99.90;;;;;;5058312;28;20608;-51
2022/01/09 02:58:40;;;;;;;1.20;0.90;;;7.60;99.90;;;;;;5057228;28;20479;-48
2022/01/09 03:01:08;;;;;;;1.30;0.90;;;7.50;99.90;;;;;;5059310;28;20600;-51
2022/01/09 03:03:34;;;;;;;1.30;1.00;;;7.50;99.90;;;;;;5058243;28;21073;-50
2022/01/09 03:06:00;;;;;;;1.43;1.20;;;7.40;99.90;;;;;;5057734;28;20537;-49
2022/01/09 03:08:26;;;;;;;1.20;0.87;;;7.40;99.90;;;;;;5059242;28;20429;-51
2022/01/09 03:10:52;;;;;;;1.30;1.00;;;7.30;99.90;;;;;;5057002;28;20613;-49
2022/01/09 03:13:18;;;;;;;1.53;1.00;;;7.30;99.90;;;;;;5059534;28;20807;-49
2022/01/09 03:15:43;;;;;;;1.20;0.80;;;7.30;99.90;;;;;;5057647;28;20214;-51
2022/01/09 03:18:10;;;;;;;1.63;0.83;;;7.30;99.90;;;;;;5058453;28;20426;-49
2022/01/09 03:20:36;;;;;;;1.73;0.97;;;7.20;99.90;;;;;;5056759;28;20233;-50
2022/01/09 03:23:02;;;;;;;1.60;1.10;;;7.20;99.90;;;;;;5057183;28;20532;-51
2022/01/09 03:25:28;;;;;;;1.30;1.00;;;7.20;99.90;;;;;;5058134;28;20493;-50
2022/01/09 03:27:55;;;;;;;1.37;1.03;;;7.10;99.90;;;;;;5059542;28;20517;-51
2022/01/09 03:30:23;;;;;;;1.20;0.90;;;7.10;99.90;;;;;;5058120;28;20434;-52
2022/01/09 03:32:50;;;;;;;1.40;1.00;;;7.10;99.90;;;;;;5058482;28;20442;-53
2022/01/09 03:35:18;;;;;;;1.30;0.90;;;7.10;99.90;;;;;;5059676;28;20449;-49
2022/01/09 03:37:45;;;;;;;1.47;1.00;;;7.00;99.90;;;;;;5060298;28;21024;-49
2022/01/09 03:40:14;;;;;;;1.50;0.90;;;6.90;99.90;;;;;;5056708;28;20476;-54
2022/01/09 03:42:40;;;;;;;1.50;0.83;;;6.90;99.90;;;;;;5057408;28;20444;-50
2022/01/09 03:45:08;;;;;;;1.50;0.90;;;6.80;99.90;;;;;;5058316;28;20730;-52
2022/01/09 03:47:35;;;;;;;1.30;0.80;;;6.70;99.90;;;;;;5058169;28;20460;-49
2022/01/09 03:50:02;;;;;;;1.40;1.00;;;6.70;99.90;;;;;;5060373;28;20536;-51
2022/01/09 03:52:28;;;;;;;1.47;1.00;;;6.60;99.90;;;;;;5055823;28;20456;-52
2022/01/09 03:54:55;;;;;;;1.20;0.90;;;6.50;99.90;;;;;;5056808;28;20441;-50
2022/01/09 03:57:21;;;;;;;1.10;0.80;;;6.50;99.90;;;;;;5058510;28;20194;-49
2022/01/09 03:59:47;;;;;;;1.20;0.80;;;6.50;99.90;;;;;;5062369;28;20479;-49
2022/01/09 04:02:13;;;;;;;1.50;0.90;;;6.50;99.90;;;;;;5062993;28;20426;-50
2022/01/09 04:04:38;;;;;;;1.10;0.87;;;6.50;99.90;;;;;;5060327;28;20834;-49
2022/01/09 04:07:04;;;;;;;1.50;0.93;;;6.50;99.90;;;;;;5060774;28;20190;-50
2022/01/09 04:09:40;;;;;;;1.40;1.00;;;6.50;99.90;;;;;;5060093;28;20451;-48
2022/01/09 04:12:15;;;;;;;1.10;0.83;;;6.60;99.90;;;;;;5059241;28;20494;-52
2022/01/09 04:14:46;;;;;;;1.93;1.23;;;6.50;99.90;;;;;;5059673;28;20437;-49
2022/01/09 04:17:21;;;;;;;1.10;0.90;;;6.50;99.90;;;;;;5061141;28;20903;-52
2022/01/09 04:19:46;;;;;;;2.23;0.80;;;6.60;99.90;;;;;;5060126;28;20473;-52
2022/01/09 04:22:12;;;;;;;1.03;0.70;;;6.50;99.90;;;;;;5062480;28;20427;-52
2022/01/09 04:24:38;;;;;;;1.10;0.80;;;6.50;99.90;;;;;;5060858;28;20184;-49
2022/01/09 04:27:04;;;;;;;1.27;0.87;;;6.50;99.90;;;;;;5059591;28;20188;-51
2022/01/09 04:29:29;;;;;;;1.10;0.93;;;6.40;99.90;;;;;;5058796;28;20278;-49
2022/01/09 04:31:55;;;;;;;1.10;0.90;;;6.50;99.90;;;;;;5060761;28;20549;-51
2022/01/09 04:34:20;;;;;;;1.20;0.90;;;6.50;99.90;;;;;;5059804;28;20547;-52
2022/01/09 04:36:46;;;;;;;1.90;0.90;;;6.40;99.90;;;;;;5043491;28;20219;-51
2022/01/09 04:39:12;;;;;;;1.10;0.90;;;6.40;99.90;;;;;;5060489;28;20229;-52
2022/01/09 04:41:38;;;;;;;2.03;0.80;;;6.40;99.90;;;;;;5058745;28;20214;-53
2022/01/09 04:44:04;;;;;;;1.10;0.80;;;6.30;99.90;;;;;;5058545;28;20725;-53
2022/01/09 04:46:39;;;;;;;1.20;0.80;;;6.10;99.90;;;;;;5059427;28;20203;-52
2022/01/09 04:49:05;;;;;;;1.30;1.00;;;6.00;99.90;;;;;;5061369;28;20217;-51
2022/01/09 04:51:31;;;;;;;1.20;0.80;;;5.90;99.90;;;;;;5061012;28;20429;-52
2022/01/09 04:53:56;;;;;;;1.10;0.90;;;5.80;99.90;;;;;;5061101;28;20662;-51
2022/01/09 04:56:22;;;;;;;1.10;0.90;;;5.70;99.90;;;;;;5085184;22;20230;-52
2022/01/09 04:58:47;;;;;;;1.20;0.80;;;5.60;99.90;;;;;;5077094;28;20293;-53
2022/01/09 05:01:13;;;;;;;1.10;0.87;;;5.50;99.90;;;;;;5073495;28;20618;-48
2022/01/09 05:03:39;;;;;;;1.10;0.80;;;5.50;99.90;;;;;;5060391;28;20207;-52
2022/01/09 05:06:04;;;;;;;1.20;0.80;;;5.50;99.90;;;;;;5067152;28;20204;-52
2022/01/09 05:08:30;;;;;;;1.10;0.80;;;5.50;99.90;;;;;;5053983;28;20278;-50
2022/01/09 05:10:56;;;;;;;1.10;0.80;;;5.50;99.90;;;;;;5050802;28;20187;-53
2022/01/09 05:13:21;;;;;;;1.20;1.00;;;5.50;99.90;;;;;;5048206;28;20257;-54
2022/01/09 05:15:48;;;;;;;4.90;0.90;;;5.50;99.90;;;;;;5049986;28;20458;-50
2022/01/09 05:18:14;;;;;;;1.10;0.80;;;5.50;99.90;;;;;;5051789;28;20628;-51
2022/01/09 05:20:44;;;;;;;1.10;0.80;;;5.50;99.90;;;;;;5053296;28;20567;-51
2022/01/09 05:23:10;;;;;;;1.30;0.80;;;5.50;99.90;;;;;;5050527;28;20461;-54
2022/01/09 05:25:36;;;;;;;1.10;0.70;;;5.40;99.90;;;;;;5050717;28;20832;-50
2022/01/09 05:28:02;;;;;;;1.10;0.80;;;5.40;99.90;;;;;;5053222;28;21152;-51
2022/01/09 05:30:28;;;;;;;2.17;1.10;;;5.40;99.90;;;;;;5051144;28;20532;-53
2022/01/09 05:32:53;;;;;;;1.20;0.90;;;5.40;99.90;;;;;;5034698;28;20187;-53
2022/01/09 05:35:19;;;;;;;1.20;0.90;;;5.40;99.90;;;;;;5052696;28;20645;-52
2022/01/09 05:37:44;;;;;;;1.30;0.93;;;5.40;99.90;;;;;;5051509;28;20322;-48
2022/01/09 05:40:11;;;;;;;1.20;0.80;;;5.30;99.90;;;;;;5052921;28;20225;-53
2022/01/09 05:42:37;;;;;;;1.20;1.00;;;5.40;99.90;;;;;;5033741;28;20198;-51
2022/01/09 05:45:04;;;;;;;1.30;0.80;;;5.40;99.90;;;;;;5036075;28;20429;-52
2022/01/09 05:47:30;;;;;;;1.10;0.80;;;5.40;99.90;;;;;;5050532;28;21297;-52
2022/01/09 05:49:56;;;;;;;3.20;1.00;;;5.50;99.90;;;;;;5049014;28;20440;-51
2022/01/09 05:52:21;;;;;;;1.13;0.90;;;5.40;99.90;;;;;;5054620;28;20187;-51
2022/01/09 05:54:48;;;;;;;1.67;1.10;;;5.40;99.90;;;;;;5053796;28;20179;-47
2022/01/09 05:57:14;;;;;;;1.40;1.10;;;5.40;99.90;;;;;;5057225;28;20617;-51
2022/01/09 05:59:39;;;;;;;2.07;1.10;;;5.40;99.90;;;;;;5053471;28;20457;-52
2022/01/09 06:02:05;;;;;;;1.10;0.90;;;5.30;99.90;;;;;;5054012;28;20655;-51
2022/01/09 06:04:31;;;;;;;1.27;1.13;;;5.40;99.90;;;;;;5055676;28;20218;-53
2022/01/09 06:06:57;;;;;;;1.37;0.90;;;5.40;99.90;;;;;;5040961;28;20516;-51
2022/01/09 06:09:22;;;;;;;1.33;1.10;;;5.50;99.90;;;;;;5056540;28;20544;-53
2022/01/09 06:11:48;;;;;;;2.60;1.00;;;5.40;99.90;;;;;;5050813;28;20194;-53
2022/01/09 06:14:14;;;;;;;1.30;1.00;;;5.40;99.90;;;;;;5054104;28;20202;-53
2022/01/09 06:16:39;;;;;;;1.70;1.20;;;5.40;99.90;;;;;;5055741;28;20208;-53
2022/01/09 06:19:05;;;;;;;1.97;1.20;;;5.40;99.90;;;;;;5055896;28;20230;-52
2022/01/09 06:21:30;;;;;;;1.70;1.00;;;5.40;99.90;;;;;;5054764;28;20726;-55
2022/01/09 06:23:56;;;;;;;2.70;1.20;;;5.40;99.90;;;;;;5056250;28;20203;-52
2022/01/09 06:26:22;;;;;;;1.80;1.40;;;5.30;99.90;;;;;;5056714;28;20210;-51
2022/01/09 06:28:48;;;;;;;2.90;1.57;;;5.30;99.90;;;;;;5055542;28;20621;-54
2022/01/09 06:31:13;;;;;;;4.17;1.60;;;5.40;99.90;;;;;;5057133;28;20578;-52
2022/01/09 06:33:39;;;;;;;1.50;1.27;;;5.40;99.90;;;;;;5057316;28;20180;-52
2022/01/09 06:36:05;;;;;;;4.40;1.73;;;5.40;99.90;;;;;;5055997;28;20480;-49
2022/01/09 06:38:30;;;;;;;2.93;1.63;;;5.40;99.90;;;;;;5055974;28;20240;-48
2022/01/09 06:40:56;;;;;;;3.63;1.40;;;5.40;99.90;;;;;;5055614;28;20448;-52
2022/01/09 06:43:22;;;;;;;3.93;1.47;;;5.50;99.90;;;;;;5056025;28;20198;-51
2022/01/09 06:45:48;;;;;;;2.13;1.30;;;5.50;99.90;;;;;;5052454;28;21002;-48
2022/01/09 06:48:13;;;;;;;3.50;1.50;;;5.50;99.90;;;;;;5041089;28;20271;-54
2022/01/09 06:50:39;;;;;;;2.73;1.60;;;5.50;99.90;;;;;;5056100;28;20566;-52
2022/01/09 06:53:05;;;;;;;4.70;1.50;;;5.50;99.90;;;;;;5054300;28;20189;-54
2022/01/09 06:55:30;;;;;;;4.23;1.53;;;5.50;99.90;;;;;;5058266;28;20224;-54
2022/01/09 06:57:56;;;;;;;2.83;1.80;;;5.50;99.90;;;;;;5053792;28;20242;-52
2022/01/09 07:00:22;;;;;;;8.33;1.77;;;5.50;99.90;;;;;;5053371;28;20203;-53
2022/01/09 07:02:48;;;;;;;6.70;1.87;;;5.50;99.90;;;;;;5055799;28;21578;-49
2022/01/09 07:05:14;;;;;;;5.40;1.60;;;5.50;99.90;;;;;;5052654;28;20450;-53
2022/01/09 07:07:40;;;;;;;1.30;1.20;;;5.50;99.90;;;;;;5054898;28;20203;-48
2022/01/09 07:10:07;;;;;;;3.30;1.83;;;5.50;99.90;;;;;;5056364;28;20438;-51
2022/01/09 07:12:32;;;;;;;6.97;1.73;;;5.50;99.90;;;;;;5054184;28;20201;-56
2022/01/09 07:14:58;;;;;;;8.17;1.80;;;5.50;99.90;;;;;;5051706;28;20453;-51
2022/01/09 07:17:24;;;;;;;4.50;2.40;;;5.60;99.90;;;;;;5053780;28;20219;-53
2022/01/09 07:19:49;;;;;;;5.00;1.93;;;5.60;99.90;;;;;;5056265;28;20222;-48
2022/01/09 07:22:15;;;;;;;13.67;4.10;;;5.50;99.90;;;;;;5055692;28;20191;-48
2022/01/09 07:24:41;;;;;;;6.77;1.97;;;5.60;99.90;;;;;;5055319;28;21181;-50
2022/01/09 07:27:06;;;;;;;7.60;1.97;;;5.50;99.90;;;;;;5053316;28;20207;-50
2022/01/09 07:29:32;;;;;;;7.13;1.73;;;5.60;99.90;;;;;;5054572;28;20188;-47
2022/01/09 07:31:58;;;;;;;2.13;1.40;;;5.60;99.90;;;;;;5056034;28;20284;-47
2022/01/09 07:34:23;;;;;;;3.30;2.13;;;5.50;99.90;;;;;;5052501;28;20649;-51
2022/01/09 07:36:49;;;;;;;10.10;2.13;;;5.50;99.90;;;;;;5055532;28;20226;-53
2022/01/09 07:39:15;;;;;;;3.10;1.60;;;5.50;99.90;;;;;;5055365;28;20207;-53
2022/01/09 07:41:42;;;;;;;6.20;1.50;;;5.50;99.90;;;;;;5051865;28;20540;-52
2022/01/09 07:44:08;;;;;;;8.27;2.27;;;5.50;99.90;;;;;;5052421;28;20246;-54
2022/01/09 07:46:34;;;;;;;4.43;1.53;;;5.50;99.90;;;;;;5055093;28;20446;-52
2022/01/09 07:49:00;;;;;;;6.27;1.73;;;5.50;99.90;;;;;;5054331;28;20196;-53
2022/01/09 07:51:25;;;;;;;7.43;1.73;;;5.50;99.90;;;;;;5053980;28;20469;-51
2022/01/09 07:53:51;;;;;;;7.10;1.63;;;5.50;99.90;;;;;;5053604;28;20264;-54
2022/01/09 07:56:17;;;;;;;5.67;1.80;;;5.40;99.90;;;;;;5056563;28;20233;-53
2022/01/09 07:58:42;;;;;;;6.73;1.70;;;5.50;99.90;;;;;;5055234;28;20604;-53
2022/01/09 08:01:08;;;;;;;4.33;2.03;;;5.50;99.90;;;;;;5052013;28;20288;-50
2022/01/09 08:03:36;;;;;;;5.13;1.70;;;5.60;99.90;;;;;;5053131;28;20183;-50
2022/01/09 08:06:03;;;;;;;2.70;1.63;;;5.60;99.90;;;;;;5055285;28;20475;-47
2022/01/09 08:08:28;;;;;;;6.47;2.03;;;5.50;99.90;;;;;;5051615;28;20864;-52
2022/01/09 08:10:54;;;;;;;8.10;2.73;;;5.50;99.90;;;;;;5051848;28;20659;-51
2022/01/09 08:13:21;;;;;;;5.17;2.90;;;5.50;99.90;;;;;;5053686;28;20234;-54
2022/01/09 08:15:47;;;;;;;4.87;1.60;;;5.50;99.90;;;;;;5051843;28;20486;-52
2022/01/09 08:18:13;;;;;;;3.13;2.13;;;5.60;99.90;;;;;;5051904;28;20196;-53
2022/01/09 08:20:38;;;;;;;8.93;2.03;;;5.60;99.90;;;;;;5053439;28;20574;-53
2022/01/09 08:23:04;;;;;;;2.17;1.67;;;5.60;99.90;;;;;;5055163;28;20183;-48
2022/01/09 08:25:30;;;;;;;4.17;1.53;;;5.50;99.90;;;;;;5051484;28;20243;-49
2022/01/09 08:27:55;;;;;;;4.27;1.90;;;5.60;99.90;;;;;;5052583;28;20201;-53
2022/01/09 08:30:21;;;;;;;7.57;2.40;;;5.60;99.90;;;;;;5054403;28;20195;-56
2022/01/09 08:32:48;;;;;;;7.60;2.53;;;5.60;99.90;;;;;;5052920;28;20395;-51
2022/01/09 08:35:14;;;;;;;8.10;2.17;;;5.70;99.90;;;;;;5053702;28;20443;-52
2022/01/09 08:37:42;;;;;;;3.40;1.57;;;5.60;99.90;;;;;;5052128;28;20488;-51
2022/01/09 08:40:13;;;;;;;7.57;2.60;;;5.60;99.90;;;;;;5053360;28;20461;-53
2022/01/09 08:42:40;;;;;;;6.60;1.80;;;5.60;99.90;;;;;;5039703;28;20448;-49
2022/01/09 08:45:07;;;;;;;9.30;2.37;;;5.60;99.90;;;;;;5052842;28;20813;-53
2022/01/09 08:47:37;;;;;;;4.40;2.00;;;5.60;99.90;;;;;;5054424;28;20435;-51
2022/01/09 08:50:04;;;;;;;13.53;2.23;;;5.60;99.90;;;;;;5054926;28;20434;-54
2022/01/09 08:52:30;;;;;;;3.63;2.00;;;5.60;99.90;;;;;;5051845;28;20452;-55
2022/01/09 08:54:55;;;;;;;12.70;2.10;;;5.60;99.90;;;;;;5053386;28;20445;-52
2022/01/09 08:57:24;;;;;;;4.00;1.80;;;5.60;99.90;;;;;;5053735;28;20608;-54
2022/01/09 08:59:49;;;;;;;3.73;1.70;;;5.60;99.90;;;;;;5051939;28;20659;-54
2022/01/09 09:02:15;;;;;;;5.70;2.80;;;5.60;99.90;;;;;;5054094;28;20449;-54
2022/01/09 09:04:41;;;;;;;3.77;1.80;;;5.60;99.90;;;;;;5054500;28;20608;-53
2022/01/09 09:07:06;;;;;;;6.63;2.47;;;5.60;99.90;;;;;;5050951;28;20336;-54
2022/01/09 09:09:32;;;;;;;10.73;1.90;;;5.50;99.90;;;;;;5052312;28;20222;-56
2022/01/09 09:11:58;;;;;;;9.33;2.50;;;5.60;99.90;;;;;;5054476;28;20224;-52
2022/01/09 09:14:23;;;;;;;10.40;3.23;;;5.50;99.90;;;;;;5054562;28;20325;-55
2022/01/09 09:16:49;;;;;;;4.30;1.70;;;5.50;99.90;;;;;;5052419;28;20276;-52
2022/01/09 09:19:14;;;;;;;6.10;2.10;;;5.40;99.90;;;;;;5053115;28;20357;-48
2022/01/09 09:21:40;;;;;;;10.13;2.33;;;5.50;99.90;;;;;;5053065;28;20191;-55
2022/01/09 09:24:06;;;;;;;8.90;2.10;;;5.40;99.90;;;;;;5053150;28;20191;-53
2022/01/09 09:26:32;;;;;;;8.30;2.27;;;5.50;99.90;;;;;;5052702;28;20208;-53
2022/01/09 09:28:57;;;;;;;2.73;1.90;;;5.40;99.90;;;;;;5055858;28;20468;-55
2022/01/09 09:31:25;;;;;;;6.97;2.10;;;5.40;99.90;;;;;;5038537;28;20729;-56
2022/01/09 09:33:51;;;;;;;6.70;2.60;;;5.40;99.90;;;;;;5057058;28;20191;-53
2022/01/09 09:36:16;;;;;;;4.50;2.10;;;5.40;99.90;;;;;;5059021;28;20491;-55
2022/01/09 09:38:42;;;;;;;8.60;3.30;;;5.40;99.90;;;;;;5047269;28;20274;-55
2022/01/09 09:41:08;;;;;;;5.10;2.27;;;5.40;99.90;;;;;;5052861;28;20299;-54
2022/01/09 09:43:33;;;;;;;2.67;1.63;;;5.40;99.90;;;;;;5053162;28;20188;-56
2022/01/09 09:46:00;;;;;;;4.50;2.27;;;5.40;99.90;;;;;;5055389;28;20207;-51
2022/01/09 09:48:26;;;;;;;10.13;1.90;;;5.40;99.90;;;;;;5057903;28;20202;-51
2022/01/09 09:50:52;;;;;;;9.73;2.10;;;5.40;99.90;;;;;;5058975;28;20433;-53
2022/01/09 09:53:17;;;;;;;5.20;2.33;;;5.50;99.90;;;;;;5054596;28;20195;-54
2022/01/09 09:55:45;;;;;;;4.67;1.97;;;5.40;99.90;;;;;;5054201;28;20387;-53
2022/01/09 09:58:10;;;;;;;2.07;1.63;;;5.40;99.90;;;;;;5053086;28;20518;-55
2022/01/09 10:00:36;;;;;;;4.10;1.97;;;5.50;99.90;;;;;;5056471;28;20563;-53
2022/01/09 10:03:03;;;;;;;8.10;2.50;;;5.40;99.90;;;;;;5038458;28;20434;-54
2022/01/09 10:05:38;;;;;;;4.00;1.97;;;5.50;99.90;;;;;;5056920;28;20230;-55
2022/01/09 10:08:05;;;;;;;6.50;2.10;;;5.50;99.90;;;;;;5059768;28;20951;-53
2022/01/09 10:10:33;;;;;;;5.13;1.87;;;5.50;99.90;;;;;;5057356;28;20534;-55
2022/01/09 10:13:10;;;;;;;2.80;1.90;;;5.60;99.90;;;;;;5058033;28;20882;-50
2022/01/09 10:15:43;;;;;;;5.73;2.63;;;5.50;99.90;;;;;;5057130;28;20451;-55
2022/01/09 10:18:08;;;;;;;9.67;2.50;;;5.60;99.90;;;;;;5057507;28;20855;-54
2022/01/09 10:20:34;;;;;;;3.27;1.60;;;5.70;99.90;;;;;;5057216;28;20472;-53
2022/01/09 10:23:00;;;;;;;4.60;2.00;;;5.70;99.90;;;;;;5041201;28;20202;-55
2022/01/09 10:25:37;;;;;;;4.37;3.50;;;5.70;99.90;;;;;;5052553;28;20573;-52
2022/01/09 10:28:14;;;;;;;5.77;2.00;;;5.60;99.90;;;;;;5055192;28;20195;-55
2022/01/09 10:30:41;;;;;;;5.87;2.20;;;5.60;99.90;;;;;;5044015;28;20736;-51
2022/01/09 10:33:10;;;;;;;7.13;2.37;;;5.70;99.90;;;;;;5051476;28;20433;-55
2022/01/09 10:35:38;;;;;;;7.87;3.20;;;5.70;99.90;;;;;;5055497;28;20460;-53
2022/01/09 10:38:05;;;;;;;6.60;2.13;;;5.80;99.90;;;;;;5050071;28;20500;-53
2022/01/09 10:40:34;;;;;;;6.27;2.20;;;5.90;99.90;;;;;;5051306;28;20458;-54
2022/01/09 10:43:06;;;;;;;8.77;3.40;;;5.90;99.90;;;;;;5055061;28;20487;-55
2022/01/09 10:45:32;;;;;;;3.60;2.10;;;5.90;99.90;;;;;;5054313;28;20556;-57
2022/01/09 10:48:07;;;;;;;2.97;1.97;;;5.90;99.90;;;;;;5052533;28;20590;-55
2022/01/09 10:50:36;;;;;;;6.40;2.17;;;5.80;99.90;;;;;;5039975;28;20426;-55
2022/01/09 10:53:12;;;;;;;4.50;2.60;;;5.90;99.90;;;;;;5046769;28;20535;-54
2022/01/09 10:55:38;;;;;;;4.40;2.00;;;5.80;99.90;;;;;;5052863;28;20469;-55
2022/01/09 10:58:23;;;;;;;8.90;2.80;;;5.90;99.90;;;;;;5055032;28;20445;-51
2022/01/09 11:01:09;;;;;;;9.40;2.80;;;5.80;99.90;;;;;;5052421;28;20253;-55
2022/01/09 11:03:35;;;;;;;7.50;2.40;;;5.80;99.90;;;;;;5034372;28;20835;-53
2022/01/09 11:06:02;;;;;;;4.60;2.33;;;5.80;99.90;;;;;;5055406;28;20453;-56
2022/01/09 11:08:31;;;;;;;6.50;2.53;;;5.80;99.90;;;;;;5030584;28;20859;-56
2022/01/09 11:11:01;;;;;;;3.83;2.80;;;5.90;99.90;;;;;;5052292;28;20464;-55
2022/01/09 11:13:28;;;;;;;7.40;2.27;;;5.90;99.90;;;;;;5051176;28;20451;-51
2022/01/09 11:18:41;;;;;;;4.47;2.27;;;6.00;99.90;;;;;;5056263;28;21064;-56
2022/01/09 11:21:07;;;;;;;6.17;2.83;;;6.10;99.90;;;;;;5053105;28;20465;-54
2022/01/09 11:23:56;;;;;;;5.03;2.37;;;6.00;99.90;;;;;;5051726;28;20442;-52
2022/01/09 11:26:40;;;;;;;8.47;2.73;;;6.10;99.90;;;;;;5058132;28;20215;-51
2022/01/09 11:29:08;;;;;;;7.83;3.10;;;6.00;99.90;;;;;;5045436;28;20454;-48
2022/01/09 11:31:54;;;;;;;7.90;2.87;;;6.00;99.90;;;;;;5052320;28;20475;-55
2022/01/09 11:34:48;;;;;;;5.80;2.80;;;6.10;99.90;;;;;;5050139;28;20877;-53
2022/01/09 11:37:40;;;;;;;8.30;2.60;;;6.10;99.90;;;;;;5052333;28;20828;-56
2022/01/09 11:40:21;;;;;;;6.37;2.40;;;6.20;99.90;;;;;;5052774;28;20549;-51
2022/01/09 11:43:04;;;;;;;4.77;2.50;;;6.30;99.90;;;;;;5051109;28;20430;-55
2022/01/09 11:46:00;;;;;;;8.60;2.73;;;6.40;99.90;;;;;;5053748;28;20461;-55
2022/01/09 11:48:58;;;;;;;4.80;2.17;;;6.40;99.90;;;;;;5051170;28;20803;-52
2022/01/09 11:51:26;;;;;;;4.87;2.13;;;6.50;99.90;;;;;;5052233;28;20460;-53
2022/01/09 11:54:08;;;;;;;5.53;2.67;;;6.40;99.90;;;;;;5052263;28;20922;-53
2022/01/09 11:57:03;;;;;;;8.30;2.37;;;6.50;99.90;;;;;;5048790;28;20473;-52
2022/01/09 11:59:38;;;;;;;6.83;2.20;;;6.60;99.90;;;;;;5051183;28;20917;-53
2022/01/09 12:02:16;;;;;;;4.60;2.03;;;6.80;99.90;;;;;;5055955;28;20460;-54
2022/01/09 12:04:41;;;;;;;3.60;2.07;;;6.80;99.90;;;;;;5046403;28;20458;-54
2022/01/09 12:07:19;;;;;;;3.67;1.63;;;6.90;99.90;;;;;;5043151;28;20548;-52
2022/01/09 12:09:47;;;;;;;5.70;2.00;;;6.90;99.90;;;;;;5049031;28;20183;-55
2022/01/09 12:12:20;;;;;;;5.40;2.10;;;6.90;99.90;;;;;;5051249;28;20433;-53
2022/01/09 12:14:51;;;;;;;6.33;2.00;;;6.90;99.90;;;;;;5048387;28;20879;-54
2022/01/09 12:17:32;;;;;;;8.50;4.90;;;6.80;99.90;;;;;;5051118;28;20446;-53
2022/01/09 12:20:10;;;;;;;4.47;1.87;;;6.70;99.90;;;;;;5050078;28;20584;-56
2022/01/09 12:22:50;;;;;;;11.80;3.03;;;6.90;99.90;;;;;;5053509;28;21023;-50
2022/01/09 12:25:25;;;;;;;5.17;2.40;;;7.30;99.90;;;;;;5030683;28;20447;-53
2022/01/09 12:28:15;;;;;;;4.47;2.23;;;8.40;99.90;;;;;;5039171;28;21008;-53
2022/01/09 12:30:43;;;;;;;7.33;2.17;;;8.90;99.90;;;;;;5053465;28;20441;-53
2022/01/09 12:33:13;;;;;;;4.53;2.37;;;9.10;99.90;;;;;;5052829;28;20528;-52
2022/01/09 12:36:06;;;;;;;2.73;1.87;;;9.30;99.90;;;;;;5054661;28;20463;-54
2022/01/09 12:38:41;;;;;;;6.37;3.37;;;9.20;99.90;;;;;;5042244;28;20450;-50
2022/01/09 12:41:09;;;;;;;4.97;2.20;;;8.60;99.90;;;;;;5033535;28;21123;-57
2022/01/09 12:43:36;;;;;;;4.70;2.00;;;8.70;99.90;;;;;;5049054;28;20426;-53
2022/01/09 12:46:09;;;;;;;10.30;4.10;;;8.50;99.90;;;;;;5050333;28;20519;-55
2022/01/09 12:48:35;;;;;;;8.93;2.67;;;8.40;99.90;;;;;;5050909;28;20449;-55
2022/01/09 12:51:15;;;;;;;7.23;2.30;;;8.20;99.90;;;;;;5049987;28;20449;-49
2022/01/09 12:53:46;;;;;;;4.30;2.00;;;7.90;99.90;;;;;;5033917;28;20473;-53
2022/01/09 12:56:14;;;;;;;8.53;2.50;;;7.70;99.90;;;;;;5053047;28;20840;-55
2022/01/09 12:58:55;;;;;;;6.30;2.53;;;7.60;99.90;;;;;;5049649;28;20430;-52
2022/01/09 13:01:42;;;;;;;4.10;2.40;;;7.50;99.90;;;;;;5051312;28;21120;-54
2022/01/09 13:04:19;;;;;;;3.87;1.77;;;7.30;99.90;;;;;;5053636;28;20813;-53